Time;durP1;ratioP1;P1;durP2;ratioP2;P2;SDS_P1;SDS_P2;PMS_P1;PMS_P2;Temp;Humidity;BMP_temperature;BMP_pressure;BME280_temperature;BME280_humidity;BME280_pressure;Samples;Min_cycle;Max_cycle;Signal;HPM_P1;HPM_P2
2020/12/03 00:08:35;;;;;;;;;;;6.30;99.90;;;;;;4085373;26;20883;31
2020/12/03 00:11:03;;;;;;;;;;;6.40;99.90;;;;;;4100246;34;20899;31
2020/12/03 00:21:28;;;;;;;;;;;6.40;99.90;;;;;;4116569;34;20018;31
2020/12/03 00:24:02;;;;;;;;;;;6.40;99.90;;;;;;4084891;32;21591;31
2020/12/03 00:29:13;;;;;;;;;;;6.40;99.90;;;;;;4059061;26;20062;31
2020/12/03 00:34:33;;;;;;;;;;;6.40;99.90;;;;;;3935489;26;20162;31
2020/12/03 00:42:19;;;;;;;;;;;6.40;99.90;;;;;;4117464;34;21633;31
2020/12/03 00:47:28;;;;;;;;;;;6.40;99.90;;;;;;4106492;34;20459;31
2020/12/03 01:00:32;;;;;;;;;;;6.40;99.90;;;;;;4099611;34;21333;31
2020/12/03 01:03:12;;;;;;;;;;;6.40;99.90;;;;;;4066826;34;21684;31
2020/12/03 01:06:11;;;;;;;;;;;6.40;99.90;;;;;;4117698;34;21370;31
2020/12/03 01:09:08;;;;;;;;;;;;;;;;;;;;;
2020/12/03 01:11:42;;;;;;;;;;;6.40;99.90;;;;;;4093737;26;20010;31
2020/12/03 01:19:23;;;;;;;;;;;6.40;99.90;;;;;;4145107;32;20154;31
2020/12/03 01:22:00;;;;;;;;;;;6.30;99.90;;;;;;4032423;26;20113;31
2020/12/03 01:24:50;;;;;;;;;;;6.30;99.90;;;;;;4017435;33;20392;31
2020/12/03 01:27:41;;;;;;;;;;;6.40;99.90;;;;;;4082209;34;20022;31
2020/12/03 01:38:23;;;;;;;;;;;6.30;99.90;;;;;;4096707;26;20872;31
2020/12/03 01:43:26;;;;;;;;;;;6.30;99.90;;;;;;4040012;34;20039;31
2020/12/03 01:51:16;;;;;;;;;;;6.30;99.90;;;;;;4118513;34;20170;31
2020/12/03 01:54:17;;;;;;;;;;;6.30;99.90;;;;;;4084414;32;21539;31
2020/12/03 01:59:19;;;;;;;;;;;6.30;99.90;;;;;;4116339;34;20165;31
2020/12/03 02:01:57;;;;;;;;;;;6.30;99.90;;;;;;4117437;26;21563;31
2020/12/03 02:09:59;;;;;;;;;;;6.20;99.90;;;;;;3939809;30;20030;31
2020/12/03 02:12:48;;;;;;;;;;;6.10;99.90;;;;;;4102381;26;22316;31
2020/12/03 02:15:30;;;;;;;;;;;6.10;99.90;;;;;;4091414;32;20562;31
2020/12/03 02:43:56;;;;;;;;;;;6.00;99.90;;;;;;4118247;34;20469;31
2020/12/03 02:46:42;;;;;;;;;;;6.00;99.90;;;;;;4066516;34;20499;31
2020/12/03 02:51:46;;;;;;;;;;;6.00;99.90;;;;;;4118820;34;22325;31
2020/12/03 02:54:19;;;;;;;;;;;6.00;99.90;;;;;;4094542;26;20669;31
2020/12/03 02:56:51;;;;;;;;;;;6.00;99.90;;;;;;4094332;32;20068;31
2020/12/03 03:02:19;;;;;;;;;;;6.00;99.90;;;;;;4136821;26;21197;31
2020/12/03 03:04:56;;;;;;;;;;;6.00;99.90;;;;;;4108299;26;21070;31
2020/12/03 03:07:50;;;;;;;;;;;6.00;99.90;;;;;;4117695;26;20038;31
2020/12/03 03:10:58;;;;;;;;;;;6.00;99.90;;;;;;4080249;27;20190;31
2020/12/03 03:44:36;;;;;;;;;;;5.70;99.90;;;;;;4111068;34;20209;31
2020/12/03 03:47:13;;;;;;;;;;;5.70;99.90;;;;;;4118791;26;20052;31
2020/12/03 03:50:01;;;;;;;;;;;5.70;99.90;;;;;;4107891;26;20886;31
2020/12/03 03:57:36;;;;;;;;;;;5.70;99.90;;;;;;4143281;32;20473;31
2020/12/03 04:00:16;;;;;;;;;;;5.80;99.90;;;;;;4080237;32;20281;31
2020/12/03 04:10:27;;;;;;;;;;;5.90;99.90;;;;;;4118572;34;20033;31
2020/12/03 04:13:02;;;;;;;;;;;5.90;99.90;;;;;;4090276;26;20139;31
2020/12/03 04:18:12;;;;;;;;;;;5.90;99.90;;;;;;4108325;34;20075;31
2020/12/03 04:21:06;;;;;;;;;;;6.00;99.90;;;;;;4095190;26;20042;31
2020/12/03 04:23:38;;;;;;;;;;;6.00;99.90;;;;;;4118621;26;20057;31
2020/12/03 04:33:49;;;;;;;;;;;6.10;99.90;;;;;;4093997;26;20053;31
2020/12/03 04:36:47;;;;;;;;;;;6.10;99.90;;;;;;4121858;32;21295;31
2020/12/03 04:39:17;;;;;;;;;;;6.10;99.90;;;;;;4075002;26;19999;31
2020/12/03 04:41:59;;;;;;;;;;;6.10;99.90;;;;;;4112824;32;20083;31
2020/12/03 04:47:21;;;;;;;;;;;6.10;99.90;;;;;;4121247;34;20061;31
2020/12/03 04:52:25;;;;;;;;;;;6.10;99.90;;;;;;4118258;34;20511;31
2020/12/03 04:55:13;;;;;;;;;;;6.10;99.90;;;;;;4087995;26;20925;31
2020/12/03 04:58:41;;;;;;;;;;;;;;;;;;;;;
2020/12/03 05:01:34;;;;;;;;;;;6.10;99.90;;;;;;4115900;34;20261;31
2020/12/03 05:06:53;;;;;;;;;;;6.20;99.90;;;;;;4093485;26;20381;31
2020/12/03 05:09:28;;;;;;;;;;;6.20;99.90;;;;;;4088890;32;20909;31
2020/12/03 05:14:29;;;;;;;;;;;6.20;99.90;;;;;;4102449;32;20029;31
2020/12/03 05:17:24;;;;;;;;;;;6.20;99.90;;;;;;4080730;27;20077;31
2020/12/03 05:20:09;;;;;;;;;;;6.20;99.90;;;;;;4070921;26;20761;31
2020/12/03 05:27:49;;;;;;;;;;;6.20;99.90;;;;;;4145178;32;20069;31
2020/12/03 05:30:18;;;;;;;;;;;6.20;99.90;;;;;;4091382;34;20358;31
2020/12/03 05:45:38;;;;;;;;;;;6.30;99.90;;;;;;4109953;26;20002;31
2020/12/03 05:48:14;;;;;;;;;;;6.20;99.90;;;;;;4099483;34;20033;31
2020/12/03 05:55:51;;;;;;;;;;;6.30;99.90;;;;;;4119236;26;20050;31
2020/12/03 05:58:29;;;;;;;;;;;6.30;99.90;;;;;;4103136;32;20080;31
2020/12/03 06:01:16;;;;;;;;;;;6.20;99.90;;;;;;4105604;34;20052;31
2020/12/03 06:04:03;;;;;;;;;;;6.20;99.90;;;;;;4089437;34;20689;31
2020/12/03 06:09:02;;;;;;;;;;;6.20;99.90;;;;;;4083837;26;20037;31
2020/12/03 06:11:54;;;;;;;;;;;6.20;99.90;;;;;;4118180;34;20013;31
2020/12/03 06:17:17;;;;;;;;;;;6.20;99.90;;;;;;4118761;34;20193;31
2020/12/03 06:20:00;;;;;;;;;;;6.10;99.90;;;;;;4081037;34;20024;31
2020/12/03 06:22:52;;;;;;;;;;;6.10;99.90;;;;;;4108475;32;20029;31
2020/12/03 06:25:37;;;;;;;;;;;6.10;99.90;;;;;;3574501;32;20016;-85
2020/12/03 06:33:30;;;;;;;;;;;6.00;99.90;;;;;;3595158;40;19988;-86
2020/12/03 06:38:40;;;;;;;;;;;6.00;99.90;;;;;;4114328;26;20084;31
2020/12/03 06:41:30;;;;;;;;;;;6.00;99.90;;;;;;4064579;27;20026;31
2020/12/03 06:44:14;;;;;;;;;;;6.00;99.90;;;;;;4021670;34;21138;31
2020/12/03 06:46:45;;;;;;;;;;;6.00;99.90;;;;;;4106532;32;20057;31
2020/12/03 06:49:37;;;;;;;;;;;6.00;99.90;;;;;;4044205;33;20867;31
2020/12/03 06:52:48;;;;;;;;;;;6.00;99.90;;;;;;4067937;32;20897;31
2020/12/03 07:03:45;;;;;;;;;;;6.00;99.90;;;;;;4067871;34;21410;31
2020/12/03 07:06:22;;;;;;;;;;;6.00;99.90;;;;;;3614208;39;20176;-85
2020/12/03 07:11:25;;;;;;;;;;;6.00;99.90;;;;;;3635635;39;19997;-85
2020/12/03 07:24:06;;;;;;;;;;;5.90;99.90;;;;;;3625850;39;20023;-85
2020/12/03 07:31:44;;;;;;;;;;;5.90;99.90;;;;;;4029321;34;20196;31
2020/12/03 07:34:30;;;;;;;;;;;5.90;99.90;;;;;;4106372;32;21076;31
2020/12/03 07:39:57;;;;;;;;;;;5.90;99.90;;;;;;3962481;34;20037;31
2020/12/03 07:45:04;;;;;;;;;;;5.90;99.90;;;;;;3851189;31;20048;31
2020/12/03 07:47:49;;;;;;;;;;;5.90;99.90;;;;;;3918345;32;20012;31
2020/12/03 07:50:21;;;;;;;;;;;5.90;99.90;;;;;;3600540;32;20003;-87
2020/12/03 08:00:26;;;;;;;;;;;5.90;99.90;;;;;;4103281;34;20906;31
2020/12/03 08:03:03;;;;;;;;;;;5.90;99.90;;;;;;4118927;34;20143;31
2020/12/03 08:05:49;;;;;;;;;;;5.90;99.90;;;;;;4116064;26;20431;31
2020/12/03 08:08:32;;;;;;;;;;;5.90;99.90;;;;;;4127132;34;20423;31
2020/12/03 08:11:05;;;;;;;;;;;5.90;99.90;;;;;;4104456;26;20135;31
2020/12/03 08:16:08;;;;;;;;;;;5.90;99.90;;;;;;3607201;39;19975;-83
2020/12/03 08:18:44;;;;;;;;;;;5.90;99.90;;;;;;3594830;32;20059;-85
2020/12/03 08:21:13;;;;;;;;;;;5.90;99.90;;;;;;3566320;40;19957;-84
2020/12/03 08:26:12;;;;;;;;;;;5.90;99.90;;;;;;3623669;39;19990;-85
2020/12/03 08:39:20;;;;;;;;;;;5.90;99.90;;;;;;4036417;26;20851;31
2020/12/03 08:41:56;;;;;;;;;;;5.90;99.90;;;;;;3983320;26;22230;31
2020/12/03 08:44:32;;;;;;;;;;;5.90;99.90;;;;;;4096222;34;20075;31
2020/12/03 08:47:09;;;;;;;;;;;5.90;99.90;;;;;;4112365;32;20072;31
2020/12/03 08:54:52;;;;;;;;;;;6.00;99.90;;;;;;4105801;34;20022;31
2020/12/03 08:57:32;;;;;;;;;;;6.00;99.90;;;;;;4106108;32;20266;31
2020/12/03 09:00:15;;;;;;;;;;;6.00;99.90;;;;;;4092221;34;21029;31
2020/12/03 09:05:41;;;;;;;;;;;6.00;99.90;;;;;;3606755;32;19960;-86
2020/12/03 09:08:23;;;;;;;;;;;6.10;99.90;;;;;;3801407;26;20045;31
2020/12/03 09:18:41;;;;;;;;;;;6.00;99.90;;;;;;4112356;26;20071;31
2020/12/03 09:21:13;;;;;;;;;;;6.00;99.90;;;;;;4114350;26;22597;31
2020/12/03 09:28:57;;;;;;;;;;;6.00;99.90;;;;;;4116484;34;20052;31
2020/12/03 09:34:36;;;;;;;;;;;6.10;99.90;;;;;;3942897;26;20066;31
2020/12/03 09:45:37;;;;;;;;;;;6.10;99.90;;;;;;4104198;32;20161;31
2020/12/03 09:48:20;;;;;;;;;;;6.00;99.90;;;;;;4105647;32;20070;31
2020/12/03 09:51:04;;;;;;;;;;;6.00;99.90;;;;;;4105888;34;20047;31
2020/12/03 09:53:42;;;;;;;;;;;6.00;99.90;;;;;;4120715;34;20009;31
2020/12/03 09:56:22;;;;;;;;;;;6.00;99.90;;;;;;4088508;26;20069;31
2020/12/03 10:01:54;;;;;;;;;;;6.00;99.90;;;;;;3615619;32;19994;-83
2020/12/03 10:04:29;;;;;;;;;;;6.00;99.90;;;;;;3615654;39;19996;-84
2020/12/03 10:07:06;;;;;;;;;;;6.00;99.90;;;;;;3586379;40;19996;-85
2020/12/03 10:17:33;;;;;;;;;;;6.10;99.90;;;;;;3944839;29;20905;31
2020/12/03 10:20:17;;;;;;;;;;;6.00;99.90;;;;;;4061028;32;20040;31
2020/12/03 10:22:54;;;;;;;;;;;6.00;99.90;;;;;;3593785;40;20006;-84
2020/12/03 10:25:22;;;;;;;;;;;6.00;99.90;;;;;;3584166;32;19991;-85
2020/12/03 10:27:54;;;;;;;;;;;6.00;99.90;;;;;;3582908;32;19996;-83
2020/12/03 10:30:25;;;;;;;;;;;6.00;99.90;;;;;;3560564;32;20048;-84
2020/12/03 10:32:53;;;;;;;;;;;6.00;99.90;;;;;;3551187;32;20487;-84
2020/12/03 10:35:27;;;;;;;;;;;5.90;99.90;;;;;;3553267;32;20013;-86
2020/12/03 10:38:02;;;;;;;;;;;5.90;99.90;;;;;;3551064;33;20009;-83
2020/12/03 10:40:37;;;;;;;;;;;5.90;99.90;;;;;;3552481;32;19997;-85
2020/12/03 10:43:20;;;;;;;;;;;6.00;99.90;;;;;;3549991;32;20011;-83
2020/12/03 10:45:49;;;;;;;;;;;6.00;99.90;;;;;;3550458;32;20063;-84
2020/12/03 10:48:22;;;;;;;;;;;6.00;99.90;;;;;;3544938;32;20390;-83
2020/12/03 10:50:50;;;;;;;;;;;6.00;99.90;;;;;;3551186;33;20447;-85
2020/12/03 10:53:23;;;;;;;;;;;6.00;99.90;;;;;;3554901;40;20005;-84
2020/12/03 10:55:54;;;;;;;;;;;6.00;99.90;;;;;;3545525;32;19993;-84
2020/12/03 10:58:26;;;;;;;;;;;6.00;99.90;;;;;;3545434;32;19997;-85
2020/12/03 11:00:55;;;;;;;;;;;6.00;99.90;;;;;;3555992;32;20005;-85
2020/12/03 11:03:32;;;;;;;;;;;6.00;99.90;;;;;;3556751;32;20031;-83
2020/12/03 11:06:04;;;;;;;;;;;6.00;99.90;;;;;;3558749;40;19992;-85
2020/12/03 11:08:40;;;;;;;;;;;6.00;99.90;;;;;;3565794;40;19999;-83
2020/12/03 11:11:15;;;;;;;;;;;6.00;99.90;;;;;;3556375;40;20015;-86
2020/12/03 11:13:46;;;;;;;;;;;6.00;99.90;;;;;;3554151;32;20004;-85
2020/12/03 11:16:18;;;;;;;;;;;6.00;99.90;;;;;;3555253;32;19978;-84
2020/12/03 11:18:51;;;;;;;;;;;6.00;99.90;;;;;;3562031;40;19968;-85
2020/12/03 11:21:23;;;;;;;;;;;6.00;99.90;;;;;;3527733;33;20053;-84
2020/12/03 11:24:15;;;;;;;;;;;6.00;99.90;;;;;;3523438;40;19998;-84
2020/12/03 11:26:47;;;;;;;;;;;6.00;99.90;;;;;;3499441;41;19959;-85
2020/12/03 11:29:19;;;;;;;;;;;6.10;99.90;;;;;;3492951;33;20006;-85
2020/12/03 11:32:07;;;;;;;;;;;6.00;99.90;;;;;;3496250;41;20036;-86
2020/12/03 11:34:50;;;;;;;;;;;6.10;99.90;;;;;;3496376;41;19999;-84
2020/12/03 11:50:43;;;;;;;;;;;6.20;99.90;;;;;;3577495;40;20526;-86
2020/12/03 11:53:14;;;;;;;;;;;6.20;99.90;;;;;;3568232;32;20722;-84
2020/12/03 11:55:42;;;;;;;;;;;6.30;99.90;;;;;;3568686;32;20006;-85
2020/12/03 11:58:11;;;;;;;;;;;6.30;99.90;;;;;;3583028;32;20026;-84
2020/12/03 12:00:50;;;;;;;;;;;6.30;99.90;;;;;;3584978;32;20000;-84
2020/12/03 12:03:24;;;;;;;;;;;6.30;99.90;;;;;;3574615;32;19992;-83
2020/12/03 12:05:52;;;;;;;;;;;6.30;99.90;;;;;;3575000;40;20438;-85
2020/12/03 12:08:30;;;;;;;;;;;6.30;99.90;;;;;;3576288;32;19992;-85
2020/12/03 12:14:06;;;;;;;;;;;6.30;99.90;;;;;;3538476;33;20029;-84
2020/12/03 12:16:37;;;;;;;;;;;6.30;99.90;;;;;;3535248;33;19954;-86
2020/12/03 12:19:09;;;;;;;;;;;6.30;99.90;;;;;;3527402;33;19988;-85
2020/12/03 12:21:46;;;;;;;;;;;6.30;99.90;;;;;;3525437;33;20018;-85
2020/12/03 12:24:17;;;;;;;;;;;6.30;99.90;;;;;;3515847;33;20554;-86
2020/12/03 12:26:43;;;;;;;;;;;6.40;99.90;;;;;;3516542;33;20002;-86
2020/12/03 12:29:11;;;;;;;;;;;6.30;99.90;;;;;;3500158;40;20007;-83
2020/12/03 12:31:40;;;;;;;;;;;6.30;99.90;;;;;;3499210;33;20003;-85
2020/12/03 12:34:08;;;;;;;;;;;6.30;99.90;;;;;;3508257;33;19998;-85
2020/12/03 12:36:45;;;;;;;;;;;6.40;99.90;;;;;;3498158;41;20007;-84
2020/12/03 12:39:19;;;;;;;;;;;6.30;99.90;;;;;;3488950;41;20038;-85
2020/12/03 12:42:04;;;;;;;;;;;6.40;99.90;;;;;;3488312;33;19972;-85
2020/12/03 12:44:36;;;;;;;;;;;6.40;99.90;;;;;;3477242;33;21417;-85
2020/12/03 12:47:08;;;;;;;;;;;6.40;99.90;;;;;;3475438;33;20428;-83
2020/12/03 12:49:34;;;;;;;;;;;6.40;99.90;;;;;;3477096;33;20046;-83
2020/12/03 12:52:05;;;;;;;;;;;6.40;99.90;;;;;;3490871;33;20063;-83
2020/12/03 12:54:51;;;;;;;;;;;6.40;99.90;;;;;;3477106;41;20123;-83
2020/12/03 12:57:20;;;;;;;;;;;6.40;99.90;;;;;;3475734;33;20012;-83
2020/12/03 12:59:49;;;;;;;;;;;6.40;99.90;;;;;;3469192;33;20012;-82
2020/12/03 13:02:25;;;;;;;;;;;6.40;99.90;;;;;;3473535;33;20066;-83
2020/12/03 13:04:54;;;;;;;;;;;6.40;99.90;;;;;;3485466;33;20167;-83
2020/12/03 13:07:22;;;;;;;;;;;6.40;99.90;;;;;;3488607;33;20006;-83
2020/12/03 13:09:51;;;;;;;;;;;6.40;99.90;;;;;;3483909;41;20010;-88
2020/12/03 13:12:17;;;;;;;;;;;6.30;99.90;;;;;;3480363;34;20007;-83
2020/12/03 13:14:50;;;;;;;;;;;6.30;99.90;;;;;;3472650;33;20023;-83
2020/12/03 13:17:15;;;;;;;;;;;6.30;99.90;;;;;;3467743;33;20078;-82
2020/12/03 13:19:47;;;;;;;;;;;6.30;99.90;;;;;;3458765;41;20010;-82
2020/12/03 13:22:15;;;;;;;;;;;6.30;99.90;;;;;;3472800;33;20000;-83
2020/12/03 13:24:43;;;;;;;;;;;6.30;99.90;;;;;;3457915;41;19995;-83
2020/12/03 13:27:14;;;;;;;;;;;6.30;99.90;;;;;;3448727;33;19992;-83
2020/12/03 13:29:51;;;;;;;;;;;6.30;99.90;;;;;;3455540;33;19997;-84
2020/12/03 13:32:21;;;;;;;;;;;6.40;99.90;;;;;;3457258;41;20541;-82
2020/12/03 13:35:07;;;;;;;;;;;6.40;99.90;;;;;;3473718;41;20486;-83
2020/12/03 13:37:36;;;;;;;;;;;6.40;99.90;;;;;;3498345;41;20034;-82
2020/12/03 13:40:02;;;;;;;;;;;6.30;99.90;;;;;;3487086;33;19995;-83
2020/12/03 13:42:33;;;;;;;;;;;6.30;99.90;;;;;;3485868;33;20166;-83
2020/12/03 13:44:59;;;;;;;;;;;6.30;99.90;;;;;;3491382;33;20099;-83
2020/12/03 13:47:26;;;;;;;;;;;6.40;99.90;;;;;;3503831;40;20055;-83
2020/12/03 13:49:58;;;;;;;;;;;6.30;99.90;;;;;;3495275;41;20050;-83
2020/12/03 13:52:28;;;;;;;;;;;6.30;99.90;;;;;;3507738;33;20002;-83
2020/12/03 13:55:27;;;;;;;;;;;6.30;99.90;;;;;;3496949;41;19998;-81
2020/12/03 13:57:59;;;;;;;;;;;6.30;99.90;;;;;;3512477;33;20512;-83
2020/12/03 14:00:26;;;;;;;;;;;6.30;99.90;;;;;;3512896;40;20041;-83
2020/12/03 14:02:57;;;;;;;;;;;6.20;99.90;;;;;;3513303;33;20015;-84
2020/12/03 14:05:25;;;;;;;;;;;6.20;99.90;;;;;;3531088;33;20046;-83
2020/12/03 14:07:56;;;;;;;;;;;6.20;99.90;;;;;;3518853;33;20525;-84
2020/12/03 14:10:22;;;;;;;;;;;6.20;99.90;;;;;;3513412;33;20464;-84
2020/12/03 14:12:50;;;;;;;;;;;6.20;99.90;;;;;;3520902;40;20103;-84
2020/12/03 14:15:19;;;;;;;;;;;6.20;99.90;;;;;;3508577;33;20010;-83
2020/12/03 14:17:44;;;;;;;;;;;6.20;99.90;;;;;;3524794;33;20029;-83
2020/12/03 14:20:17;;;;;;;;;;;6.10;99.90;;;;;;3519472;40;20085;-83
2020/12/03 14:22:53;;;;;;;;;;;6.10;99.90;;;;;;3525219;33;19998;-82
2020/12/03 14:25:28;;;;;;;;;;;6.10;99.90;;;;;;3527620;33;20002;-84
2020/12/03 14:27:59;;;;;;;;;;;6.10;99.90;;;;;;3515513;33;19998;-81
2020/12/03 14:30:35;;;;;;;;;;;6.10;99.90;;;;;;3494845;33;20039;-81
2020/12/03 14:33:06;;;;;;;;;;;6.10;99.90;;;;;;3471348;41;19995;-81
2020/12/03 14:35:34;;;;;;;;;;;6.10;99.90;;;;;;3488905;33;20390;-83
2020/12/03 14:38:02;;;;;;;;;;;6.10;99.90;;;;;;3495978;33;20262;-82
2020/12/03 14:40:28;;;;;;;;;;;6.00;99.90;;;;;;3505986;33;20042;-82
2020/12/03 14:42:54;;;;;;;;;;;6.00;99.90;;;;;;3496584;41;20069;-82
2020/12/03 14:45:23;;;;;;;;;;;6.00;99.90;;;;;;3496079;41;20055;-83
2020/12/03 14:47:54;;;;;;;;;;;6.00;99.90;;;;;;3509621;33;20470;-83
2020/12/03 14:50:27;;;;;;;;;;;6.00;99.90;;;;;;3519298;40;20029;-84
2020/12/03 14:52:57;;;;;;;;;;;6.00;99.90;;;;;;3517400;33;20442;-84
2020/12/03 14:55:30;;;;;;;;;;;5.90;99.90;;;;;;3509931;33;20505;-82
2020/12/03 14:58:23;;;;;;;;;;;5.90;99.90;;;;;;3508703;40;20019;-84
2020/12/03 15:00:59;;;;;;;;;;;5.90;99.90;;;;;;3517506;33;20452;-84
2020/12/03 15:03:37;;;;;;;;;;;5.90;99.90;;;;;;3506184;33;20009;-83
2020/12/03 15:06:10;;;;;;;;;;;5.80;99.90;;;;;;3497932;33;20019;-81
2020/12/03 15:08:37;;;;;;;;;;;5.80;99.90;;;;;;3488944;33;20010;-82
2020/12/03 15:11:15;;;;;;;;;;;5.70;99.90;;;;;;3491315;33;20176;-82
2020/12/03 15:13:45;;;;;;;;;;;5.70;99.90;;;;;;3504284;41;19998;-82
2020/12/03 15:16:15;;;;;;;;;;;5.70;99.90;;;;;;3515332;33;20503;-82
2020/12/03 15:18:44;;;;;;;;;;;5.70;99.90;;;;;;3515642;33;20018;-84
2020/12/03 15:21:12;;;;;;;;;;;5.70;99.90;;;;;;3506859;33;19997;-82
2020/12/03 15:23:43;;;;;;;;;;;5.60;99.90;;;;;;3499028;33;20092;-82
2020/12/03 15:26:09;;;;;;;;;;;5.60;99.90;;;;;;3516851;33;20503;-83
2020/12/03 15:28:34;;;;;;;;;;;5.60;99.90;;;;;;3510521;40;20014;-83
2020/12/03 15:31:03;;;;;;;;;;;5.60;99.90;;;;;;3498204;41;19998;-82
2020/12/03 15:33:46;;;;;;;;;;;5.60;99.90;;;;;;3505271;33;19990;-80
2020/12/03 15:36:17;;;;;;;;;;;5.60;99.90;;;;;;3506380;40;20035;-82
2020/12/03 15:38:49;;;;;;;;;;;5.60;99.90;;;;;;3485870;33;20002;-80
2020/12/03 15:41:15;;;;;;;;;;;5.60;99.90;;;;;;3485692;33;20025;-81
2020/12/03 15:43:49;;;;;;;;;;;5.60;99.90;;;;;;3493785;41;20002;-83
2020/12/03 15:46:17;;;;;;;;;;;5.60;99.90;;;;;;3493559;41;20095;-82
2020/12/03 15:48:46;;;;;;;;;;;5.60;99.90;;;;;;3497264;33;20006;-83
2020/12/03 15:51:28;;;;;;;;;;;5.50;99.90;;;;;;3512130;33;20014;-83
2020/12/03 15:54:14;;;;;;;;;;;5.60;99.90;;;;;;3486952;41;20504;-82
2020/12/03 15:56:57;;;;;;;;;;;5.50;99.90;;;;;;3513112;33;20006;-79
2020/12/03 15:59:35;;;;;;;;;;;5.60;99.90;;;;;;3521999;40;20458;-78
2020/12/03 16:02:08;;;;;;;;;;;5.50;99.90;;;;;;3522991;33;20106;-79
2020/12/03 16:04:40;;;;;;;;;;;5.50;99.90;;;;;;3528455;32;20005;-79
2020/12/03 16:07:06;;;;;;;;;;;5.50;99.90;;;;;;3532435;40;20005;-78
2020/12/03 16:09:33;;;;;;;;;;;5.50;99.90;;;;;;3532543;40;20021;-79
2020/12/03 16:12:03;;;;;;;;;;;5.50;99.90;;;;;;3540706;32;20033;-78
2020/12/03 16:14:31;;;;;;;;;;;5.50;99.90;;;;;;3543066;32;20008;-78
2020/12/03 16:17:02;;;;;;;;;;;5.50;99.90;;;;;;3543552;40;20441;-78
2020/12/03 16:19:33;;;;;;;;;;;5.50;99.90;;;;;;3540896;32;20015;-77
2020/12/03 16:22:05;;;;;;;;;;;5.50;99.90;;;;;;3552908;32;20012;-78
2020/12/03 16:24:42;;;;;;;;;;;5.50;99.90;;;;;;3539801;32;20027;-78
2020/12/03 16:27:11;;;;;;;;;;;5.50;99.90;;;;;;3536174;32;19997;-78
2020/12/03 16:29:36;;;;;;;;;;;5.40;99.90;;;;;;3502554;33;20017;-79
2020/12/03 16:32:06;;;;;;;;;;;5.50;99.90;;;;;;3512168;40;20009;-78
2020/12/03 16:34:37;;;;;;;;;;;5.40;99.90;;;;;;3512738;33;20001;-78
2020/12/03 16:37:09;;;;;;;;;;;5.40;99.90;;;;;;3531182;32;20025;-80
2020/12/03 16:39:35;;;;;;;;;;;5.40;99.90;;;;;;3532884;32;20021;-78
2020/12/03 16:42:08;;;;;;;;;;;5.40;99.90;;;;;;3541226;32;20036;-78
2020/12/03 16:44:33;;;;;;;;;;;5.40;99.90;;;;;;3540910;40;20015;-78
2020/12/03 16:47:06;;;;;;;;;;;5.40;99.90;;;;;;3534543;40;20005;-78
2020/12/03 16:49:32;;;;;;;;;;;5.40;99.90;;;;;;3531248;40;20111;-79
2020/12/03 16:51:58;;;;;;;;;;;5.40;99.90;;;;;;3530675;40;19998;-78
2020/12/03 16:54:24;;;;;;;;;;;5.30;99.90;;;;;;3530017;40;20009;-78
2020/12/03 16:56:50;;;;;;;;;;;5.40;99.90;;;;;;3532128;40;20119;-78
2020/12/03 16:59:27;;;;;;;;;;;5.30;99.90;;;;;;3540586;40;20011;-78
2020/12/03 17:01:52;;;;;;;;;;;5.30;99.90;;;;;;3541082;40;19997;-78
2020/12/03 17:04:23;;;;;;;;;;;5.30;99.90;;;;;;3540749;40;20003;-77
2020/12/03 17:06:49;;;;;;;;;;;5.30;99.90;;;;;;3540440;40;20135;-78
2020/12/03 17:09:18;;;;;;;;;;;5.30;99.90;;;;;;3537896;40;20187;-78
2020/12/03 17:11:49;;;;;;;;;;;5.20;99.90;;;;;;3531205;32;20008;-77
2020/12/03 17:14:17;;;;;;;;;;;5.20;99.90;;;;;;3512037;32;20018;-78
2020/12/03 17:16:50;;;;;;;;;;;5.20;99.90;;;;;;3501375;40;20026;-77
2020/12/03 17:19:27;;;;;;;;;;;5.20;99.90;;;;;;3530804;32;20005;-78
2020/12/03 17:22:07;;;;;;;;;;;5.20;99.90;;;;;;3519400;40;20450;-79
2020/12/03 17:24:55;;;;;;;;;;;5.20;99.90;;;;;;3518740;33;20467;-78
2020/12/03 17:27:25;;;;;;;;;;;5.20;99.90;;;;;;3512612;33;20025;-77
2020/12/03 17:29:53;;;;;;;;;;;5.20;99.90;;;;;;3512188;33;20002;-76
2020/12/03 17:32:24;;;;;;;;;;;5.20;99.90;;;;;;3512056;34;20059;-78
2020/12/03 17:35:04;;;;;;;;;;;5.10;99.90;;;;;;3511933;33;19998;-77
2020/12/03 17:37:29;;;;;;;;;;;5.10;99.90;;;;;;3516859;33;20013;-78
2020/12/03 17:40:02;;;;;;;;;;;5.00;99.90;;;;;;3511915;40;19997;-77
2020/12/03 17:42:34;;;;;;;;;;;5.00;99.90;;;;;;3521501;33;19997;-77
2020/12/03 17:45:09;;;;;;;;;;;5.00;99.90;;;;;;3521693;33;20407;-78
2020/12/03 17:47:57;;;;;;;;;;;5.00;99.90;;;;;;3530196;33;20135;-78
2020/12/03 17:50:44;;;;;;;;;;;5.00;99.90;;;;;;3588901;39;20448;-78
2020/12/03 17:53:15;;;;;;;;;;;4.90;99.90;;;;;;3590690;32;20057;-78
2020/12/03 17:55:46;;;;;;;;;;;4.90;99.90;;;;;;3580146;40;20015;-78
2020/12/03 17:58:12;;;;;;;;;;;4.90;99.90;;;;;;3560466;32;19992;-78
2020/12/03 18:00:49;;;;;;;;;;;4.90;99.90;;;;;;3560103;40;20078;-78
2020/12/03 18:03:33;;;;;;;;;;;4.90;99.90;;;;;;3560661;32;20004;-78
2020/12/03 18:06:01;;;;;;;;;;;4.80;99.90;;;;;;3550434;40;20072;-78
2020/12/03 18:08:36;;;;;;;;;;;4.80;99.90;;;;;;3550755;32;20051;-79
2020/12/03 18:11:07;;;;;;;;;;;4.80;99.90;;;;;;3547108;40;20008;-78
2020/12/03 18:13:34;;;;;;;;;;;4.80;99.90;;;;;;3531086;32;20005;-78
2020/12/03 18:16:01;;;;;;;;;;;4.80;99.90;;;;;;3536361;33;20431;-78
2020/12/03 18:18:33;;;;;;;;;;;4.80;99.90;;;;;;3529828;33;20528;-80
2020/12/03 18:20:59;;;;;;;;;;;4.70;99.90;;;;;;3521390;33;19997;-79
2020/12/03 18:23:33;;;;;;;;;;;4.70;99.90;;;;;;3529042;40;20071;-78
2020/12/03 18:26:04;;;;;;;;;;;4.70;99.90;;;;;;3530175;40;20000;-78
2020/12/03 18:28:32;;;;;;;;;;;4.70;99.90;;;;;;3530573;40;19999;-78
2020/12/03 18:31:08;;;;;;;;;;;4.70;99.90;;;;;;3536937;32;19989;-78
2020/12/03 18:33:39;;;;;;;;;;;4.70;99.90;;;;;;3540106;32;19993;-79
2020/12/03 18:36:11;;;;;;;;;;;4.70;99.90;;;;;;3530780;32;20044;-78
2020/12/03 18:38:38;;;;;;;;;;;4.60;99.90;;;;;;3530614;40;19997;-79
2020/12/03 18:41:11;;;;;;;;;;;4.70;99.90;;;;;;3531311;32;20088;-78
2020/12/03 18:43:37;;;;;;;;;;;4.60;99.90;;;;;;3539190;40;20048;-78
2020/12/03 18:46:11;;;;;;;;;;;4.60;99.90;;;;;;3523953;40;19990;-79
2020/12/03 18:48:39;;;;;;;;;;;4.60;99.90;;;;;;3540157;32;20191;-79
2020/12/03 18:51:08;;;;;;;;;;;4.60;99.90;;;;;;3536636;33;20087;-79
2020/12/03 18:53:37;;;;;;;;;;;4.60;99.90;;;;;;3549365;40;20056;-79
2020/12/03 18:56:07;;;;;;;;;;;4.60;99.90;;;;;;3548663;40;20012;-78
2020/12/03 18:58:41;;;;;;;;;;;4.60;99.90;;;;;;3540655;32;20001;-78
2020/12/03 19:01:25;;;;;;;;;;;4.50;99.90;;;;;;3529758;40;20013;-77
2020/12/03 19:03:53;;;;;;;;;;;4.50;99.90;;;;;;3544859;32;20028;-78
2020/12/03 19:06:27;;;;;;;;;;;4.50;99.90;;;;;;3540742;32;20000;-78
2020/12/03 19:08:57;;;;;;;;;;;4.50;99.90;;;;;;3540178;40;20034;-78
2020/12/03 19:11:32;;;;;;;;;;;4.50;99.90;;;;;;3545384;32;20016;-79
2020/12/03 19:14:15;;;;;;;;;;;4.50;99.90;;;;;;3514191;32;20515;-79
2020/12/03 19:17:17;;;;;;;;;;;;;;;;;;;;;
2020/12/03 19:19:44;;;;;;;;;;;4.50;99.90;;;;;;3521000;40;20568;-79
2020/12/03 19:22:13;;;;;;;;;;;4.50;99.90;;;;;;3522623;33;20001;-79
2020/12/03 19:24:44;;;;;;;;;;;4.60;99.90;;;;;;3517623;40;20076;-79
2020/12/03 19:27:13;;;;;;;;;;;4.50;99.90;;;;;;3510906;33;20025;-78
2020/12/03 19:29:42;;;;;;;;;;;4.50;99.90;;;;;;3520618;40;20065;-79
2020/12/03 19:32:11;;;;;;;;;;;4.50;99.90;;;;;;3521076;33;20005;-80
2020/12/03 19:34:39;;;;;;;;;;;4.50;99.90;;;;;;3523752;33;20029;-81
2020/12/03 19:37:19;;;;;;;;;;;4.50;99.90;;;;;;3520377;40;20506;-80
2020/12/03 19:39:46;;;;;;;;;;;4.60;99.90;;;;;;3511481;40;20025;-80
2020/12/03 19:42:26;;;;;;;;;;;4.60;99.90;;;;;;3510997;41;20424;-79
2020/12/03 19:44:58;;;;;;;;;;;4.60;99.90;;;;;;3520518;40;19997;-80
2020/12/03 19:47:37;;;;;;;;;;;4.60;99.90;;;;;;3539850;40;20011;-81
2020/12/03 19:50:07;;;;;;;;;;;4.60;99.90;;;;;;3532190;32;20036;-79
2020/12/03 19:52:35;;;;;;;;;;;4.60;99.90;;;;;;3531791;40;20007;-79
2020/12/03 19:55:20;;;;;;;;;;;4.60;99.90;;;;;;3541781;40;20553;-82
2020/12/03 19:57:57;;;;;;;;;;;4.60;99.90;;;;;;3549859;32;20742;-80
2020/12/03 20:00:32;;;;;;;;;;;4.60;99.90;;;;;;3543058;32;20181;-81
2020/12/03 20:03:02;;;;;;;;;;;4.60;99.90;;;;;;3537065;32;20053;-79
2020/12/03 20:05:29;;;;;;;;;;;4.60;99.90;;;;;;3529807;33;20080;-80
2020/12/03 20:08:04;;;;;;;;;;;4.60;99.90;;;;;;3519838;40;20414;-80
2020/12/03 20:10:35;;;;;;;;;;;4.60;99.90;;;;;;3524043;33;20001;-80
2020/12/03 20:13:02;;;;;;;;;;;4.60;99.90;;;;;;3518729;33;19998;-81
2020/12/03 20:15:35;;;;;;;;;;;4.60;99.90;;;;;;3500460;33;20018;-80
2020/12/03 20:18:01;;;;;;;;;;;4.60;99.90;;;;;;3494973;33;20046;-79
2020/12/03 20:20:36;;;;;;;;;;;4.60;99.90;;;;;;3513838;40;20088;-80
2020/12/03 20:23:03;;;;;;;;;;;4.60;99.90;;;;;;3512232;40;20490;-79
2020/12/03 20:25:29;;;;;;;;;;;4.60;99.90;;;;;;3512079;33;20002;-79
2020/12/03 20:27:54;;;;;;;;;;;4.60;99.90;;;;;;3502516;41;20013;-79
2020/12/03 20:30:21;;;;;;;;;;;4.60;99.90;;;;;;3520406;40;20431;-80
2020/12/03 20:32:49;;;;;;;;;;;4.60;99.90;;;;;;3502684;40;20010;-77